sensor_id;sensor_type;location;lat;lon;timestamp;P1;durP1;ratioP1;P2;durP2;ratioP2
2305;SDS011;1161;51.922;8.896;2023-05-07T00:01:18;45.00;;;23.60;;
2305;SDS011;1161;51.922;8.896;2023-05-07T00:03:44;43.70;;;21.77;;
2305;SDS011;1161;51.922;8.896;2023-05-07T00:06:11;41.57;;;20.83;;
2305;SDS011;1161;51.922;8.896;2023-05-07T00:08:38;34.40;;;20.43;;
2305;SDS011;1161;51.922;8.896;2023-05-07T00:11:06;35.47;;;22.10;;
2305;SDS011;1161;51.922;8.896;2023-05-07T00:13:32;36.63;;;21.57;;
2305;SDS011;1161;51.922;8.896;2023-05-07T00:16:00;34.17;;;20.47;;
2305;SDS011;1161;51.922;8.896;2023-05-07T00:18:27;46.77;;;21.43;;
2305;SDS011;1161;51.922;8.896;2023-05-07T00:20:54;43.97;;;23.13;;
2305;SDS011;1161;51.922;8.896;2023-05-07T00:23:21;37.87;;;21.97;;
2305;SDS011;1161;51.922;8.896;2023-05-07T00:25:48;40.53;;;23.27;;
2305;SDS011;1161;51.922;8.896;2023-05-07T00:28:16;40.57;;;22.33;;
2305;SDS011;1161;51.922;8.896;2023-05-07T00:30:43;32.50;;;20.47;;
2305;SDS011;1161;51.922;8.896;2023-05-07T00:33:09;33.37;;;21.60;;
2305;SDS011;1161;51.922;8.896;2023-05-07T00:35:36;43.80;;;23.33;;
2305;SDS011;1161;51.922;8.896;2023-05-07T00:38:03;41.77;;;23.30;;
2305;SDS011;1161;51.922;8.896;2023-05-07T00:40:29;44.97;;;24.43;;
2305;SDS011;1161;51.922;8.896;2023-05-07T00:42:56;41.60;;;24.03;;
2305;SDS011;1161;51.922;8.896;2023-05-07T00:45:25;42.60;;;24.73;;
2305;SDS011;1161;51.922;8.896;2023-05-07T00:47:53;42.50;;;24.87;;
2305;SDS011;1161;51.922;8.896;2023-05-07T00:50:21;38.97;;;23.00;;
2305;SDS011;1161;51.922;8.896;2023-05-07T00:52:47;39.97;;;22.50;;
2305;SDS011;1161;51.922;8.896;2023-05-07T00:55:14;46.63;;;23.00;;
2305;SDS011;1161;51.922;8.896;2023-05-07T00:57:41;38.87;;;22.23;;
2305;SDS011;1161;51.922;8.896;2023-05-07T01:00:08;38.07;;;23.97;;
2305;SDS011;1161;51.922;8.896;2023-05-07T01:02:39;49.23;;;24.30;;
2305;SDS011;1161;51.922;8.896;2023-05-07T01:05:06;42.00;;;24.50;;
2305;SDS011;1161;51.922;8.896;2023-05-07T01:07:34;49.80;;;25.33;;
2305;SDS011;1161;51.922;8.896;2023-05-07T01:10:02;37.53;;;20.53;;
2305;SDS011;1161;51.922;8.896;2023-05-07T01:12:29;45.90;;;22.77;;
2305;SDS011;1161;51.922;8.896;2023-05-07T01:14:57;49.97;;;24.50;;
2305;SDS011;1161;51.922;8.896;2023-05-07T01:17:23;41.43;;;24.27;;
2305;SDS011;1161;51.922;8.896;2023-05-07T01:19:51;39.70;;;24.10;;
2305;SDS011;1161;51.922;8.896;2023-05-07T01:22:24;48.23;;;25.40;;
2305;SDS011;1161;51.922;8.896;2023-05-07T01:24:55;41.70;;;23.77;;
2305;SDS011;1161;51.922;8.896;2023-05-07T01:27:22;46.17;;;24.20;;
2305;SDS011;1161;51.922;8.896;2023-05-07T01:29:48;48.30;;;25.00;;
2305;SDS011;1161;51.922;8.896;2023-05-07T01:32:15;45.33;;;24.33;;
2305;SDS011;1161;51.922;8.896;2023-05-07T01:34:45;45.27;;;24.17;;
2305;SDS011;1161;51.922;8.896;2023-05-07T01:37:14;41.13;;;24.43;;
2305;SDS011;1161;51.922;8.896;2023-05-07T01:39:42;49.00;;;24.23;;
2305;SDS011;1161;51.922;8.896;2023-05-07T01:42:09;45.33;;;26.90;;
2305;SDS011;1161;51.922;8.896;2023-05-07T01:44:36;33.73;;;21.03;;
2305;SDS011;1161;51.922;8.896;2023-05-07T01:47:03;42.63;;;23.87;;
2305;SDS011;1161;51.922;8.896;2023-05-07T01:49:30;54.33;;;27.63;;
2305;SDS011;1161;51.922;8.896;2023-05-07T01:51:57;40.43;;;23.60;;
2305;SDS011;1161;51.922;8.896;2023-05-07T01:54:25;36.87;;;21.07;;
2305;SDS011;1161;51.922;8.896;2023-05-07T01:56:54;48.83;;;24.27;;
2305;SDS011;1161;51.922;8.896;2023-05-07T01:59:22;41.53;;;22.00;;
2305;SDS011;1161;51.922;8.896;2023-05-07T02:01:48;42.60;;;23.60;;
2305;SDS011;1161;51.922;8.896;2023-05-07T02:04:15;45.17;;;25.23;;
2305;SDS011;1161;51.922;8.896;2023-05-07T02:06:42;51.80;;;26.93;;
2305;SDS011;1161;51.922;8.896;2023-05-07T02:09:09;34.73;;;23.77;;
2305;SDS011;1161;51.922;8.896;2023-05-07T02:11:36;49.07;;;27.60;;
2305;SDS011;1161;51.922;8.896;2023-05-07T02:14:04;47.03;;;24.30;;
2305;SDS011;1161;51.922;8.896;2023-05-07T02:16:31;46.33;;;24.33;;
2305;SDS011;1161;51.922;8.896;2023-05-07T02:18:57;45.63;;;26.50;;
2305;SDS011;1161;51.922;8.896;2023-05-07T02:21:24;53.33;;;24.60;;
2305;SDS011;1161;51.922;8.896;2023-05-07T02:23:51;43.83;;;24.83;;
2305;SDS011;1161;51.922;8.896;2023-05-07T02:26:18;43.17;;;24.90;;
2305;SDS011;1161;51.922;8.896;2023-05-07T02:28:45;43.93;;;24.83;;
2305;SDS011;1161;51.922;8.896;2023-05-07T02:31:13;44.20;;;25.80;;
2305;SDS011;1161;51.922;8.896;2023-05-07T02:33:41;52.43;;;25.90;;
2305;SDS011;1161;51.922;8.896;2023-05-07T02:36:07;49.90;;;24.27;;
2305;SDS011;1161;51.922;8.896;2023-05-07T02:38:35;51.07;;;28.20;;
2305;SDS011;1161;51.922;8.896;2023-05-07T02:41:02;48.37;;;26.70;;
2305;SDS011;1161;51.922;8.896;2023-05-07T02:43:28;48.47;;;26.50;;
2305;SDS011;1161;51.922;8.896;2023-05-07T02:46:01;46.07;;;25.50;;
2305;SDS011;1161;51.922;8.896;2023-05-07T02:48:30;49.73;;;24.90;;
2305;SDS011;1161;51.922;8.896;2023-05-07T02:50:57;46.90;;;25.80;;
2305;SDS011;1161;51.922;8.896;2023-05-07T02:53:24;58.47;;;25.70;;
2305;SDS011;1161;51.922;8.896;2023-05-07T02:55:51;40.67;;;23.77;;
2305;SDS011;1161;51.922;8.896;2023-05-07T02:58:19;54.60;;;27.10;;
2305;SDS011;1161;51.922;8.896;2023-05-07T03:00:46;48.87;;;26.00;;
2305;SDS011;1161;51.922;8.896;2023-05-07T03:03:12;43.97;;;26.27;;
2305;SDS011;1161;51.922;8.896;2023-05-07T03:05:41;44.50;;;25.87;;
2305;SDS011;1161;51.922;8.896;2023-05-07T03:08:08;51.77;;;26.83;;
2305;SDS011;1161;51.922;8.896;2023-05-07T03:10:35;45.47;;;25.87;;
2305;SDS011;1161;51.922;8.896;2023-05-07T03:13:02;47.03;;;24.43;;
2305;SDS011;1161;51.922;8.896;2023-05-07T03:15:29;48.73;;;25.70;;
2305;SDS011;1161;51.922;8.896;2023-05-07T03:17:57;48.93;;;26.00;;
2305;SDS011;1161;51.922;8.896;2023-05-07T03:20:24;50.33;;;25.83;;
2305;SDS011;1161;51.922;8.896;2023-05-07T03:22:52;49.50;;;28.00;;
2305;SDS011;1161;51.922;8.896;2023-05-07T03:25:20;42.43;;;22.47;;
2305;SDS011;1161;51.922;8.896;2023-05-07T03:27:46;47.70;;;25.17;;
2305;SDS011;1161;51.922;8.896;2023-05-07T03:30:13;62.77;;;25.63;;
2305;SDS011;1161;51.922;8.896;2023-05-07T03:32:40;42.73;;;23.57;;
2305;SDS011;1161;51.922;8.896;2023-05-07T03:35:07;53.33;;;26.03;;
2305;SDS011;1161;51.922;8.896;2023-05-07T03:37:33;42.00;;;24.37;;
2305;SDS011;1161;51.922;8.896;2023-05-07T03:40:02;46.83;;;26.03;;
2305;SDS011;1161;51.922;8.896;2023-05-07T03:42:29;45.07;;;23.10;;
2305;SDS011;1161;51.922;8.896;2023-05-07T03:44:56;58.43;;;25.70;;
2305;SDS011;1161;51.922;8.896;2023-05-07T03:47:23;46.50;;;23.60;;
2305;SDS011;1161;51.922;8.896;2023-05-07T03:49:50;44.20;;;23.80;;
2305;SDS011;1161;51.922;8.896;2023-05-07T03:52:19;48.10;;;25.37;;
2305;SDS011;1161;51.922;8.896;2023-05-07T03:54:51;54.27;;;25.80;;
2305;SDS011;1161;51.922;8.896;2023-05-07T03:57:20;48.03;;;25.53;;
2305;SDS011;1161;51.922;8.896;2023-05-07T03:59:46;47.57;;;25.23;;
2305;SDS011;1161;51.922;8.896;2023-05-07T04:02:14;47.10;;;24.80;;
2305;SDS011;1161;51.922;8.896;2023-05-07T04:04:40;49.33;;;25.80;;
2305;SDS011;1161;51.922;8.896;2023-05-07T04:07:07;53.23;;;26.40;;
2305;SDS011;1161;51.922;8.896;2023-05-07T04:09:34;51.47;;;26.60;;
2305;SDS011;1161;51.922;8.896;2023-05-07T04:12:07;48.17;;;25.50;;
2305;SDS011;1161;51.922;8.896;2023-05-07T04:14:35;61.63;;;26.10;;
2305;SDS011;1161;51.922;8.896;2023-05-07T04:17:02;48.60;;;25.70;;
2305;SDS011;1161;51.922;8.896;2023-05-07T04:19:29;57.70;;;27.73;;
2305;SDS011;1161;51.922;8.896;2023-05-07T04:21:56;48.43;;;26.30;;
2305;SDS011;1161;51.922;8.896;2023-05-07T04:24:23;58.60;;;28.77;;
2305;SDS011;1161;51.922;8.896;2023-05-07T04:26:50;61.90;;;27.27;;
2305;SDS011;1161;51.922;8.896;2023-05-07T04:29:17;53.33;;;27.00;;
2305;SDS011;1161;51.922;8.896;2023-05-07T04:31:46;51.73;;;27.00;;
2305;SDS011;1161;51.922;8.896;2023-05-07T04:34:12;63.10;;;27.47;;
2305;SDS011;1161;51.922;8.896;2023-05-07T04:36:39;44.30;;;25.00;;
2305;SDS011;1161;51.922;8.896;2023-05-07T04:39:06;53.00;;;24.17;;
2305;SDS011;1161;51.922;8.896;2023-05-07T04:41:33;51.60;;;28.37;;
2305;SDS011;1161;51.922;8.896;2023-05-07T04:44:01;45.70;;;25.60;;
2305;SDS011;1161;51.922;8.896;2023-05-07T04:46:30;54.27;;;27.50;;
2305;SDS011;1161;51.922;8.896;2023-05-07T04:48:58;45.60;;;26.37;;
2305;SDS011;1161;51.922;8.896;2023-05-07T04:51:25;52.27;;;24.63;;
2305;SDS011;1161;51.922;8.896;2023-05-07T04:53:53;47.00;;;25.67;;
2305;SDS011;1161;51.922;8.896;2023-05-07T04:56:20;55.20;;;28.33;;
2305;SDS011;1161;51.922;8.896;2023-05-07T04:58:47;49.77;;;26.00;;
2305;SDS011;1161;51.922;8.896;2023-05-07T05:01:14;51.87;;;28.10;;
2305;SDS011;1161;51.922;8.896;2023-05-07T05:03:41;51.00;;;27.10;;
2305;SDS011;1161;51.922;8.896;2023-05-07T05:06:10;48.67;;;26.03;;
2305;SDS011;1161;51.922;8.896;2023-05-07T05:08:37;51.10;;;24.07;;
2305;SDS011;1161;51.922;8.896;2023-05-07T05:11:03;48.33;;;26.30;;
2305;SDS011;1161;51.922;8.896;2023-05-07T05:13:31;59.30;;;27.47;;
2305;SDS011;1161;51.922;8.896;2023-05-07T05:16:12;47.53;;;26.10;;
2305;SDS011;1161;51.922;8.896;2023-05-07T05:18:40;48.30;;;25.07;;
2305;SDS011;1161;51.922;8.896;2023-05-07T05:21:07;53.30;;;24.87;;
2305;SDS011;1161;51.922;8.896;2023-05-07T05:23:35;54.60;;;25.83;;
2305;SDS011;1161;51.922;8.896;2023-05-07T05:26:02;52.10;;;24.83;;
2305;SDS011;1161;51.922;8.896;2023-05-07T05:28:29;46.17;;;24.50;;
2305;SDS011;1161;51.922;8.896;2023-05-07T05:30:56;52.70;;;24.93;;
2305;SDS011;1161;51.922;8.896;2023-05-07T05:33:23;55.73;;;25.50;;
2305;SDS011;1161;51.922;8.896;2023-05-07T05:35:50;52.10;;;25.03;;
2305;SDS011;1161;51.922;8.896;2023-05-07T05:38:18;51.47;;;25.87;;
2305;SDS011;1161;51.922;8.896;2023-05-07T05:40:47;48.63;;;24.70;;
2305;SDS011;1161;51.922;8.896;2023-05-07T05:43:15;42.20;;;23.27;;
2305;SDS011;1161;51.922;8.896;2023-05-07T05:45:43;46.03;;;22.67;;
2305;SDS011;1161;51.922;8.896;2023-05-07T05:48:10;48.10;;;25.30;;
2305;SDS011;1161;51.922;8.896;2023-05-07T05:50:37;42.50;;;22.97;;
2305;SDS011;1161;51.922;8.896;2023-05-07T05:53:04;39.43;;;22.73;;
2305;SDS011;1161;51.922;8.896;2023-05-07T05:55:31;57.27;;;24.73;;
2305;SDS011;1161;51.922;8.896;2023-05-07T05:58:00;40.00;;;24.00;;
2305;SDS011;1161;51.922;8.896;2023-05-07T06:00:27;47.70;;;22.90;;
2305;SDS011;1161;51.922;8.896;2023-05-07T06:02:54;50.27;;;23.47;;
2305;SDS011;1161;51.922;8.896;2023-05-07T06:05:22;46.00;;;23.67;;
2305;SDS011;1161;51.922;8.896;2023-05-07T06:07:48;40.93;;;21.83;;
2305;SDS011;1161;51.922;8.896;2023-05-07T06:10:15;46.23;;;23.87;;
2305;SDS011;1161;51.922;8.896;2023-05-07T06:12:42;44.67;;;21.90;;
2305;SDS011;1161;51.922;8.896;2023-05-07T06:15:11;38.80;;;21.70;;
2305;SDS011;1161;51.922;8.896;2023-05-07T06:17:37;49.03;;;21.30;;
2305;SDS011;1161;51.922;8.896;2023-05-07T06:20:05;45.33;;;19.80;;
2305;SDS011;1161;51.922;8.896;2023-05-07T06:22:33;42.37;;;21.23;;
2305;SDS011;1161;51.922;8.896;2023-05-07T06:25:00;44.73;;;23.27;;
2305;SDS011;1161;51.922;8.896;2023-05-07T06:27:26;35.70;;;22.90;;
2305;SDS011;1161;51.922;8.896;2023-05-07T06:29:53;48.77;;;22.73;;
2305;SDS011;1161;51.922;8.896;2023-05-07T06:32:22;49.93;;;22.03;;
2305;SDS011;1161;51.922;8.896;2023-05-07T06:34:49;40.23;;;20.33;;
2305;SDS011;1161;51.922;8.896;2023-05-07T06:37:15;46.30;;;20.63;;
2305;SDS011;1161;51.922;8.896;2023-05-07T06:39:42;34.83;;;20.70;;
2305;SDS011;1161;51.922;8.896;2023-05-07T06:42:09;45.57;;;22.63;;
2305;SDS011;1161;51.922;8.896;2023-05-07T06:44:36;41.13;;;20.77;;
2305;SDS011;1161;51.922;8.896;2023-05-07T06:47:03;37.67;;;20.30;;
2305;SDS011;1161;51.922;8.896;2023-05-07T06:49:32;37.73;;;17.97;;
2305;SDS011;1161;51.922;8.896;2023-05-07T06:51:58;34.53;;;18.80;;
2305;SDS011;1161;51.922;8.896;2023-05-07T06:54:25;42.90;;;19.83;;
2305;SDS011;1161;51.922;8.896;2023-05-07T06:56:52;46.93;;;22.03;;
2305;SDS011;1161;51.922;8.896;2023-05-07T06:59:19;28.60;;;17.00;;
2305;SDS011;1161;51.922;8.896;2023-05-07T07:01:46;38.47;;;18.90;;
2305;SDS011;1161;51.922;8.896;2023-05-07T07:04:13;33.27;;;18.60;;
2305;SDS011;1161;51.922;8.896;2023-05-07T07:06:41;35.80;;;18.17;;
2305;SDS011;1161;51.922;8.896;2023-05-07T07:09:08;29.83;;;16.80;;
2305;SDS011;1161;51.922;8.896;2023-05-07T07:11:35;28.70;;;15.90;;
2305;SDS011;1161;51.922;8.896;2023-05-07T07:14:02;32.50;;;16.87;;
2305;SDS011;1161;51.922;8.896;2023-05-07T07:16:30;31.57;;;16.57;;
2305;SDS011;1161;51.922;8.896;2023-05-07T07:18:57;26.70;;;16.97;;
2305;SDS011;1161;51.922;8.896;2023-05-07T07:21:23;30.33;;;14.77;;
2305;SDS011;1161;51.922;8.896;2023-05-07T07:23:52;25.80;;;17.07;;
2305;SDS011;1161;51.922;8.896;2023-05-07T07:26:19;29.43;;;17.27;;
2305;SDS011;1161;51.922;8.896;2023-05-07T07:28:46;31.33;;;15.63;;
2305;SDS011;1161;51.922;8.896;2023-05-07T07:31:13;29.00;;;16.97;;
2305;SDS011;1161;51.922;8.896;2023-05-07T07:33:40;24.60;;;15.43;;
2305;SDS011;1161;51.922;8.896;2023-05-07T07:36:07;27.00;;;15.20;;
2305;SDS011;1161;51.922;8.896;2023-05-07T07:38:34;27.83;;;14.67;;
2305;SDS011;1161;51.922;8.896;2023-05-07T07:41:03;28.00;;;16.00;;
2305;SDS011;1161;51.922;8.896;2023-05-07T07:43:30;26.20;;;14.30;;
2305;SDS011;1161;51.922;8.896;2023-05-07T07:46:01;24.80;;;14.77;;
2305;SDS011;1161;51.922;8.896;2023-05-07T07:48:28;31.77;;;15.40;;
2305;SDS011;1161;51.922;8.896;2023-05-07T07:50:55;30.47;;;14.97;;
2305;SDS011;1161;51.922;8.896;2023-05-07T07:53:22;26.13;;;15.50;;
2305;SDS011;1161;51.922;8.896;2023-05-07T07:55:49;28.83;;;14.90;;
2305;SDS011;1161;51.922;8.896;2023-05-07T07:58:17;27.87;;;14.60;;
2305;SDS011;1161;51.922;8.896;2023-05-07T08:00:44;26.13;;;15.13;;
2305;SDS011;1161;51.922;8.896;2023-05-07T08:03:12;34.47;;;15.77;;
2305;SDS011;1161;51.922;8.896;2023-05-07T08:05:40;19.77;;;13.67;;
2305;SDS011;1161;51.922;8.896;2023-05-07T08:08:06;23.97;;;11.90;;
2305;SDS011;1161;51.922;8.896;2023-05-07T08:10:35;23.83;;;14.53;;
2305;SDS011;1161;51.922;8.896;2023-05-07T08:13:03;27.33;;;14.90;;
2305;SDS011;1161;51.922;8.896;2023-05-07T08:15:32;27.27;;;14.03;;
2305;SDS011;1161;51.922;8.896;2023-05-07T08:17:59;27.17;;;14.53;;
2305;SDS011;1161;51.922;8.896;2023-05-07T08:20:28;21.43;;;13.60;;
2305;SDS011;1161;51.922;8.896;2023-05-07T08:22:55;23.93;;;13.93;;
2305;SDS011;1161;51.922;8.896;2023-05-07T08:25:23;26.40;;;13.83;;
2305;SDS011;1161;51.922;8.896;2023-05-07T08:27:49;24.70;;;13.90;;
2305;SDS011;1161;51.922;8.896;2023-05-07T08:30:16;21.00;;;13.00;;
2305;SDS011;1161;51.922;8.896;2023-05-07T08:32:44;27.50;;;15.63;;
2305;SDS011;1161;51.922;8.896;2023-05-07T08:35:12;25.00;;;13.30;;
2305;SDS011;1161;51.922;8.896;2023-05-07T08:37:40;21.60;;;13.70;;
2305;SDS011;1161;51.922;8.896;2023-05-07T08:40:11;29.07;;;14.90;;
2305;SDS011;1161;51.922;8.896;2023-05-07T08:42:38;23.17;;;13.13;;
2305;SDS011;1161;51.922;8.896;2023-05-07T08:45:08;29.20;;;14.23;;
2305;SDS011;1161;51.922;8.896;2023-05-07T08:47:39;25.50;;;13.30;;
2305;SDS011;1161;51.922;8.896;2023-05-07T08:50:08;27.90;;;15.23;;
2305;SDS011;1161;51.922;8.896;2023-05-07T08:52:35;24.13;;;13.40;;
2305;SDS011;1161;51.922;8.896;2023-05-07T08:55:22;21.20;;;12.30;;
2305;SDS011;1161;51.922;8.896;2023-05-07T08:57:50;25.33;;;13.40;;
2305;SDS011;1161;51.922;8.896;2023-05-07T09:00:18;22.90;;;13.70;;
2305;SDS011;1161;51.922;8.896;2023-05-07T09:02:46;25.77;;;13.67;;
2305;SDS011;1161;51.922;8.896;2023-05-07T09:05:15;20.00;;;11.83;;
2305;SDS011;1161;51.922;8.896;2023-05-07T09:07:42;20.17;;;13.43;;
2305;SDS011;1161;51.922;8.896;2023-05-07T09:10:09;22.17;;;11.20;;
2305;SDS011;1161;51.922;8.896;2023-05-07T09:12:36;23.53;;;12.47;;
2305;SDS011;1161;51.922;8.896;2023-05-07T09:15:04;18.23;;;11.57;;
2305;SDS011;1161;51.922;8.896;2023-05-07T09:17:33;20.63;;;11.73;;
2305;SDS011;1161;51.922;8.896;2023-05-07T09:20:04;23.17;;;13.00;;
2305;SDS011;1161;51.922;8.896;2023-05-07T09:22:33;28.13;;;13.67;;
2305;SDS011;1161;51.922;8.896;2023-05-07T09:25:00;24.13;;;13.90;;
2305;SDS011;1161;51.922;8.896;2023-05-07T09:27:27;17.23;;;11.30;;
2305;SDS011;1161;51.922;8.896;2023-05-07T09:29:54;23.13;;;14.13;;
2305;SDS011;1161;51.922;8.896;2023-05-07T09:32:20;21.57;;;11.40;;
2305;SDS011;1161;51.922;8.896;2023-05-07T09:34:47;21.77;;;13.10;;
2305;SDS011;1161;51.922;8.896;2023-05-07T09:37:14;19.83;;;11.20;;
2305;SDS011;1161;51.922;8.896;2023-05-07T09:39:43;17.87;;;9.80;;
2305;SDS011;1161;51.922;8.896;2023-05-07T09:42:13;17.17;;;11.20;;
2305;SDS011;1161;51.922;8.896;2023-05-07T09:44:41;19.43;;;12.53;;
2305;SDS011;1161;51.922;8.896;2023-05-07T09:47:09;16.80;;;10.57;;
2305;SDS011;1161;51.922;8.896;2023-05-07T09:49:37;19.57;;;11.20;;
2305;SDS011;1161;51.922;8.896;2023-05-07T09:52:07;18.60;;;10.83;;
2305;SDS011;1161;51.922;8.896;2023-05-07T09:54:36;18.77;;;11.23;;
2305;SDS011;1161;51.922;8.896;2023-05-07T09:57:06;15.53;;;11.07;;
2305;SDS011;1161;51.922;8.896;2023-05-07T09:59:34;16.23;;;9.93;;
2305;SDS011;1161;51.922;8.896;2023-05-07T10:02:03;17.17;;;10.37;;
2305;SDS011;1161;51.922;8.896;2023-05-07T10:04:31;14.47;;;9.43;;
2305;SDS011;1161;51.922;8.896;2023-05-07T10:06:58;15.73;;;10.03;;
2305;SDS011;1161;51.922;8.896;2023-05-07T10:09:26;17.30;;;10.30;;
2305;SDS011;1161;51.922;8.896;2023-05-07T10:11:53;16.40;;;10.63;;
2305;SDS011;1161;51.922;8.896;2023-05-07T10:14:21;14.07;;;8.93;;
2305;SDS011;1161;51.922;8.896;2023-05-07T10:16:48;15.43;;;9.60;;
2305;SDS011;1161;51.922;8.896;2023-05-07T10:19:15;12.90;;;8.13;;
2305;SDS011;1161;51.922;8.896;2023-05-07T10:21:44;13.80;;;8.10;;
2305;SDS011;1161;51.922;8.896;2023-05-07T10:24:16;16.67;;;8.87;;
2305;SDS011;1161;51.922;8.896;2023-05-07T10:26:47;11.90;;;9.30;;
2305;SDS011;1161;51.922;8.896;2023-05-07T10:29:18;15.27;;;8.40;;
2305;SDS011;1161;51.922;8.896;2023-05-07T10:31:54;12.67;;;8.30;;
2305;SDS011;1161;51.922;8.896;2023-05-07T10:34:23;14.90;;;9.13;;
2305;SDS011;1161;51.922;8.896;2023-05-07T10:36:52;14.03;;;8.77;;
2305;SDS011;1161;51.922;8.896;2023-05-07T10:39:19;14.90;;;9.10;;
2305;SDS011;1161;51.922;8.896;2023-05-07T10:41:47;13.43;;;8.20;;
2305;SDS011;1161;51.922;8.896;2023-05-07T10:44:25;16.40;;;8.80;;
2305;SDS011;1161;51.922;8.896;2023-05-07T10:47:05;13.00;;;8.70;;
2305;SDS011;1161;51.922;8.896;2023-05-07T10:49:34;11.43;;;7.17;;
2305;SDS011;1161;51.922;8.896;2023-05-07T10:52:12;10.17;;;7.53;;
2305;SDS011;1161;51.922;8.896;2023-05-07T10:54:40;9.27;;;7.30;;
2305;SDS011;1161;51.922;8.896;2023-05-07T11:00:00;11.47;;;7.73;;
2305;SDS011;1161;51.922;8.896;2023-05-07T11:05:28;14.40;;;8.00;;
2305;SDS011;1161;51.922;8.896;2023-05-07T11:07:55;9.20;;;7.53;;
2305;SDS011;1161;51.922;8.896;2023-05-07T11:10:23;14.40;;;8.80;;
2305;SDS011;1161;51.922;8.896;2023-05-07T11:12:53;19.90;;;7.37;;
2305;SDS011;1161;51.922;8.896;2023-05-07T11:15:38;9.97;;;5.67;;
2305;SDS011;1161;51.922;8.896;2023-05-07T11:18:07;10.03;;;6.60;;
2305;SDS011;1161;51.922;8.896;2023-05-07T11:20:47;15.10;;;7.93;;
2305;SDS011;1161;51.922;8.896;2023-05-07T11:26:24;11.23;;;6.73;;
2305;SDS011;1161;51.922;8.896;2023-05-07T11:28:52;11.80;;;7.57;;
2305;SDS011;1161;51.922;8.896;2023-05-07T11:31:21;8.73;;;7.00;;
2305;SDS011;1161;51.922;8.896;2023-05-07T11:33:53;9.40;;;5.83;;
2305;SDS011;1161;51.922;8.896;2023-05-07T11:36:21;7.37;;;5.70;;
2305;SDS011;1161;51.922;8.896;2023-05-07T11:38:49;15.57;;;6.80;;
2305;SDS011;1161;51.922;8.896;2023-05-07T11:41:16;12.43;;;7.17;;
2305;SDS011;1161;51.922;8.896;2023-05-07T11:43:54;11.50;;;6.70;;
2305;SDS011;1161;51.922;8.896;2023-05-07T11:46:24;16.03;;;8.10;;
2305;SDS011;1161;51.922;8.896;2023-05-07T11:48:51;10.13;;;6.97;;
2305;SDS011;1161;51.922;8.896;2023-05-07T11:51:18;15.00;;;7.53;;
2305;SDS011;1161;51.922;8.896;2023-05-07T11:53:45;11.30;;;6.87;;
2305;SDS011;1161;51.922;8.896;2023-05-07T11:56:13;7.33;;;6.57;;
2305;SDS011;1161;51.922;8.896;2023-05-07T11:58:41;8.80;;;5.43;;
2305;SDS011;1161;51.922;8.896;2023-05-07T12:01:08;8.90;;;6.23;;
2305;SDS011;1161;51.922;8.896;2023-05-07T12:03:39;7.53;;;5.70;;
2305;SDS011;1161;51.922;8.896;2023-05-07T12:06:09;7.03;;;6.10;;
2305;SDS011;1161;51.922;8.896;2023-05-07T12:08:37;7.83;;;6.50;;
2305;SDS011;1161;51.922;8.896;2023-05-07T12:11:06;7.57;;;6.30;;
2305;SDS011;1161;51.922;8.896;2023-05-07T12:13:34;7.50;;;6.57;;
2305;SDS011;1161;51.922;8.896;2023-05-07T12:16:00;6.33;;;5.83;;
2305;SDS011;1161;51.922;8.896;2023-05-07T12:18:28;6.83;;;6.07;;
2305;SDS011;1161;51.922;8.896;2023-05-07T12:20:56;8.40;;;6.10;;
2305;SDS011;1161;51.922;8.896;2023-05-07T12:23:24;9.43;;;7.47;;
2305;SDS011;1161;51.922;8.896;2023-05-07T12:25:50;10.10;;;6.27;;
2305;SDS011;1161;51.922;8.896;2023-05-07T12:28:17;9.00;;;7.10;;
2305;SDS011;1161;51.922;8.896;2023-05-07T12:30:45;11.80;;;8.00;;
2305;SDS011;1161;51.922;8.896;2023-05-07T12:33:16;9.77;;;6.60;;
2305;SDS011;1161;51.922;8.896;2023-05-07T12:35:42;16.30;;;8.00;;
2305;SDS011;1161;51.922;8.896;2023-05-07T12:38:11;7.40;;;6.47;;
2305;SDS011;1161;51.922;8.896;2023-05-07T12:40:39;8.00;;;6.60;;
2305;SDS011;1161;51.922;8.896;2023-05-07T12:43:07;8.63;;;6.27;;
2305;SDS011;1161;51.922;8.896;2023-05-07T12:45:36;15.60;;;9.03;;
2305;SDS011;1161;51.922;8.896;2023-05-07T12:48:03;18.57;;;7.40;;
2305;SDS011;1161;51.922;8.896;2023-05-07T12:50:30;10.43;;;7.33;;
2305;SDS011;1161;51.922;8.896;2023-05-07T12:52:57;9.27;;;7.10;;
2305;SDS011;1161;51.922;8.896;2023-05-07T12:55:25;11.73;;;7.90;;
2305;SDS011;1161;51.922;8.896;2023-05-07T12:57:52;10.20;;;7.97;;
2305;SDS011;1161;51.922;8.896;2023-05-07T13:00:31;11.77;;;7.90;;
2305;SDS011;1161;51.922;8.896;2023-05-07T13:02:59;10.20;;;7.50;;
2305;SDS011;1161;51.922;8.896;2023-05-07T13:05:25;8.90;;;6.93;;
2305;SDS011;1161;51.922;8.896;2023-05-07T13:07:52;10.63;;;7.70;;
2305;SDS011;1161;51.922;8.896;2023-05-07T13:10:19;12.80;;;8.37;;
2305;SDS011;1161;51.922;8.896;2023-05-07T13:12:47;10.60;;;7.10;;
2305;SDS011;1161;51.922;8.896;2023-05-07T13:15:14;10.43;;;7.67;;
2305;SDS011;1161;51.922;8.896;2023-05-07T13:17:41;16.17;;;8.23;;
2305;SDS011;1161;51.922;8.896;2023-05-07T13:20:08;18.50;;;10.40;;
2305;SDS011;1161;51.922;8.896;2023-05-07T13:22:35;8.73;;;7.43;;
2305;SDS011;1161;51.922;8.896;2023-05-07T13:25:02;10.17;;;8.37;;
2305;SDS011;1161;51.922;8.896;2023-05-07T13:27:29;11.63;;;7.90;;
2305;SDS011;1161;51.922;8.896;2023-05-07T13:29:57;16.13;;;8.67;;
2305;SDS011;1161;51.922;8.896;2023-05-07T13:32:24;13.53;;;9.73;;
2305;SDS011;1161;51.922;8.896;2023-05-07T13:34:50;14.83;;;10.50;;
2305;SDS011;1161;51.922;8.896;2023-05-07T13:37:17;16.47;;;9.70;;
2305;SDS011;1161;51.922;8.896;2023-05-07T13:39:43;19.70;;;10.67;;
2305;SDS011;1161;51.922;8.896;2023-05-07T13:42:10;11.50;;;8.90;;
2305;SDS011;1161;51.922;8.896;2023-05-07T13:44:37;17.10;;;10.87;;
2305;SDS011;1161;51.922;8.896;2023-05-07T13:47:05;13.70;;;9.80;;
2305;SDS011;1161;51.922;8.896;2023-05-07T13:49:32;9.50;;;8.03;;
2305;SDS011;1161;51.922;8.896;2023-05-07T13:51:58;14.93;;;10.50;;
2305;SDS011;1161;51.922;8.896;2023-05-07T13:54:25;17.53;;;10.33;;
2305;SDS011;1161;51.922;8.896;2023-05-07T13:56:51;16.73;;;10.17;;
2305;SDS011;1161;51.922;8.896;2023-05-07T13:59:18;15.33;;;10.50;;
2305;SDS011;1161;51.922;8.896;2023-05-07T14:01:44;15.47;;;9.60;;
2305;SDS011;1161;51.922;8.896;2023-05-07T14:04:13;16.70;;;9.97;;
2305;SDS011;1161;51.922;8.896;2023-05-07T14:06:40;15.13;;;10.47;;
2305;SDS011;1161;51.922;8.896;2023-05-07T14:09:06;13.50;;;9.73;;
2305;SDS011;1161;51.922;8.896;2023-05-07T14:11:34;18.50;;;12.20;;
2305;SDS011;1161;51.922;8.896;2023-05-07T14:14:00;14.10;;;10.87;;
2305;SDS011;1161;51.922;8.896;2023-05-07T14:16:27;11.10;;;8.33;;
2305;SDS011;1161;51.922;8.896;2023-05-07T14:18:53;15.37;;;10.37;;
2305;SDS011;1161;51.922;8.896;2023-05-07T14:21:21;16.60;;;10.13;;
2305;SDS011;1161;51.922;8.896;2023-05-07T14:23:48;16.60;;;10.43;;
2305;SDS011;1161;51.922;8.896;2023-05-07T14:26:15;12.47;;;9.77;;
2305;SDS011;1161;51.922;8.896;2023-05-07T14:28:41;12.23;;;10.33;;
2305;SDS011;1161;51.922;8.896;2023-05-07T14:31:11;16.00;;;10.80;;
2305;SDS011;1161;51.922;8.896;2023-05-07T14:33:37;15.60;;;10.37;;
2305;SDS011;1161;51.922;8.896;2023-05-07T14:36:04;14.03;;;11.07;;
2305;SDS011;1161;51.922;8.896;2023-05-07T14:38:33;16.40;;;11.43;;
2305;SDS011;1161;51.922;8.896;2023-05-07T14:40:59;18.20;;;10.57;;
2305;SDS011;1161;51.922;8.896;2023-05-07T14:43:26;16.00;;;11.90;;
2305;SDS011;1161;51.922;8.896;2023-05-07T14:45:53;23.83;;;12.70;;
2305;SDS011;1161;51.922;8.896;2023-05-07T14:48:19;14.30;;;10.63;;
2305;SDS011;1161;51.922;8.896;2023-05-07T14:50:46;17.53;;;12.47;;
2305;SDS011;1161;51.922;8.896;2023-05-07T14:53:13;18.00;;;12.00;;
2305;SDS011;1161;51.922;8.896;2023-05-07T14:55:41;22.53;;;12.03;;
2305;SDS011;1161;51.922;8.896;2023-05-07T14:58:08;18.97;;;11.73;;
2305;SDS011;1161;51.922;8.896;2023-05-07T15:00:34;17.40;;;10.80;;
2305;SDS011;1161;51.922;8.896;2023-05-07T15:03:04;17.80;;;12.13;;
2305;SDS011;1161;51.922;8.896;2023-05-07T15:05:31;18.77;;;11.90;;